Time;durP1;ratioP1;P1;durP2;ratioP2;P2;SDS_P1;SDS_P2;PMS_P1;PMS_P2;Temp;Humidity;BMP_temperature;BMP_pressure;BME280_temperature;BME280_humidity;BME280_pressure;Samples;Min_cycle;Max_cycle;Signal;HPM_P1;HPM_P2
2023/12/17 00:01:34;;;;;;;10.65;4.32;;;9.30;99.90;;;;;;5037591;28;20048;-85
2023/12/17 00:04:00;;;;;;;9.82;3.97;;;9.30;99.90;;;;;;5060041;28;20052;-86
2023/12/17 00:06:26;;;;;;;9.40;4.30;;;9.30;99.90;;;;;;5066584;28;20048;-85
2023/12/17 00:08:52;;;;;;;10.73;4.50;;;9.30;99.90;;;;;;5067223;28;20043;-86
2023/12/17 00:11:18;;;;;;;9.43;4.30;;;9.30;99.90;;;;;;5050682;28;20043;-85
2023/12/17 00:13:44;;;;;;;11.60;4.50;;;9.30;99.90;;;;;;5067847;28;20028;-85
2023/12/17 00:16:09;;;;;;;9.18;3.78;;;9.30;99.90;;;;;;5065044;28;20042;-86
2023/12/17 00:18:35;;;;;;;8.93;3.92;;;9.30;99.90;;;;;;5081787;28;20020;-84
2023/12/17 00:21:01;;;;;;;11.10;3.85;;;9.30;99.90;;;;;;5066647;28;20163;-85
2023/12/17 00:23:27;;;;;;;9.30;3.65;;;9.30;99.90;;;;;;5066998;28;20162;-86
2023/12/17 00:25:52;;;;;;;11.23;3.83;;;9.40;99.90;;;;;;5048435;28;20027;-86
2023/12/17 00:28:18;;;;;;;11.15;3.95;;;9.40;99.90;;;;;;5049151;28;20024;-85
2023/12/17 00:30:44;;;;;;;9.25;3.85;;;9.40;99.90;;;;;;5040308;28;20104;-84
2023/12/17 00:33:11;;;;;;;8.15;3.80;;;9.40;99.90;;;;;;5045530;28;20056;-86
2023/12/17 00:35:37;;;;;;;9.43;4.15;;;9.40;99.90;;;;;;5079844;28;20033;-85
2023/12/17 00:38:02;;;;;;;9.82;3.60;;;9.40;99.90;;;;;;5045227;28;20036;-86
2023/12/17 00:40:28;;;;;;;9.65;4.00;;;9.40;99.90;;;;;;5046552;28;20042;-85
2023/12/17 00:42:54;;;;;;;9.43;3.53;;;9.40;99.90;;;;;;5060993;28;20251;-86
2023/12/17 00:45:19;;;;;;;8.68;3.65;;;9.40;99.90;;;;;;5076903;28;20059;-85
2023/12/17 00:47:45;;;;;;;10.45;4.00;;;9.40;99.90;;;;;;5045203;28;20052;-85
2023/12/17 00:50:11;;;;;;;11.70;4.30;;;9.40;99.90;;;;;;5046219;28;21628;-86
2023/12/17 00:52:36;;;;;;;8.90;3.58;;;9.50;99.90;;;;;;5062123;28;20082;-85
2023/12/17 00:55:02;;;;;;;10.30;4.00;;;9.50;99.90;;;;;;5079345;28;20063;-85
2023/12/17 00:57:28;;;;;;;10.32;4.05;;;9.50;99.90;;;;;;5043955;28;20059;-86
2023/12/17 00:59:54;;;;;;;9.90;3.40;;;9.50;99.90;;;;;;5044410;28;20049;-85
2023/12/17 01:02:20;;;;;;;9.30;3.70;;;9.50;99.90;;;;;;5075004;28;20040;-85
2023/12/17 01:04:45;;;;;;;10.25;4.15;;;9.50;99.90;;;;;;5062895;28;20041;-85
2023/12/17 01:07:11;;;;;;;10.75;3.90;;;9.60;99.90;;;;;;5062292;28;20029;-86
2023/12/17 01:09:37;;;;;;;10.65;4.10;;;9.60;99.90;;;;;;5045446;28;20032;-86
2023/12/17 01:12:03;;;;;;;9.48;3.45;;;9.60;99.90;;;;;;5044506;28;20033;-86
2023/12/17 01:14:34;;;;;;;9.15;3.15;;;9.60;99.90;;;;;;5057035;28;20298;-86
2023/12/17 01:17:01;;;;;;;9.98;3.83;;;9.60;99.90;;;;;;5046411;28;20052;-86
2023/12/17 01:19:27;;;;;;;11.10;3.85;;;9.60;99.90;;;;;;5044601;28;20046;-86
2023/12/17 01:21:53;;;;;;;10.50;4.10;;;9.60;99.90;;;;;;5059109;28;20052;-86
2023/12/17 01:24:19;;;;;;;11.90;3.70;;;9.60;99.90;;;;;;5044251;28;20036;-85
2023/12/17 01:26:45;;;;;;;9.05;3.85;;;9.60;99.90;;;;;;5062282;28;20021;-87
2023/12/17 01:29:10;;;;;;;10.25;3.60;;;9.60;99.90;;;;;;5044894;28;20291;-86
2023/12/17 01:31:36;;;;;;;11.10;3.90;;;9.60;99.90;;;;;;5043129;28;20038;-85
2023/12/17 01:34:02;;;;;;;10.35;3.72;;;9.60;99.90;;;;;;5079050;28;20112;-85
2023/12/17 01:36:28;;;;;;;9.65;3.50;;;9.60;99.90;;;;;;5062496;28;20040;-86
2023/12/17 01:38:54;;;;;;;11.68;4.05;;;9.60;99.90;;;;;;5028635;28;20051;-86
2023/12/17 01:41:19;;;;;;;9.10;3.40;;;9.60;99.90;;;;;;5059048;28;20320;-86
2023/12/17 01:43:45;;;;;;;9.38;3.40;;;9.50;99.90;;;;;;5061712;28;20100;-85
2023/12/17 01:46:11;;;;;;;10.68;3.47;;;9.50;99.90;;;;;;5052362;28;20285;-85
2023/12/17 01:48:37;;;;;;;10.27;3.60;;;9.50;99.90;;;;;;5078121;28;20036;-86
2023/12/17 01:51:03;;;;;;;8.50;3.55;;;9.50;99.90;;;;;;5061305;28;20044;-85
2023/12/17 01:53:29;;;;;;;9.68;3.63;;;9.50;99.90;;;;;;5023129;28;20091;-86
2023/12/17 01:55:55;;;;;;;12.10;3.33;;;9.50;99.90;;;;;;5075200;28;20119;-86
2023/12/17 01:58:21;;;;;;;9.82;3.40;;;9.50;99.90;;;;;;5061468;28;20024;-85
2023/12/17 02:00:48;;;;;;;9.35;3.63;;;9.50;99.90;;;;;;5060468;28;20043;-86
2023/12/17 02:03:14;;;;;;;8.45;3.47;;;9.50;99.90;;;;;;5076265;28;20352;-86
2023/12/17 02:05:40;;;;;;;9.02;3.80;;;9.50;99.90;;;;;;5058969;28;20028;-86
2023/12/17 02:08:06;;;;;;;9.07;3.72;;;9.60;99.90;;;;;;5060724;28;20054;-86
2023/12/17 02:10:31;;;;;;;9.30;4.13;;;9.50;99.90;;;;;;5057179;28;20028;-85
2023/12/17 02:13:01;;;;;;;9.40;3.70;;;9.50;99.90;;;;;;5035049;28;20033;-86
2023/12/17 02:15:27;;;;;;;9.85;3.92;;;9.50;99.90;;;;;;5076177;28;20045;-86
2023/12/17 02:17:52;;;;;;;11.35;3.80;;;9.50;99.90;;;;;;5060533;28;20052;-86
2023/12/17 02:20:19;;;;;;;10.30;3.55;;;9.50;99.90;;;;;;5058423;28;20035;-86
2023/12/17 02:22:48;;;;;;;9.73;3.70;;;9.50;99.90;;;;;;5060244;28;20050;-86
2023/12/17 02:25:14;;;;;;;8.98;3.50;;;9.50;99.90;;;;;;5042900;28;20052;-85
2023/12/17 02:27:41;;;;;;;8.38;3.60;;;9.50;99.90;;;;;;5028042;28;20032;-85
2023/12/17 02:30:08;;;;;;;10.50;4.20;;;9.40;99.90;;;;;;5060080;28;20036;-85
2023/12/17 02:32:33;;;;;;;9.82;3.30;;;9.50;99.90;;;;;;5075339;28;20056;-86
2023/12/17 02:34:59;;;;;;;10.73;3.75;;;9.40;99.90;;;;;;5076127;28;20044;-85
2023/12/17 02:37:25;;;;;;;10.05;3.60;;;9.50;99.90;;;;;;5058554;28;20032;-85
2023/12/17 02:39:50;;;;;;;11.00;3.42;;;9.50;99.90;;;;;;5060483;28;20040;-85
2023/12/17 02:42:17;;;;;;;8.73;3.60;;;9.40;99.90;;;;;;5060483;28;20108;-85
2023/12/17 02:44:43;;;;;;;10.02;3.45;;;9.40;99.90;;;;;;5043330;28;20032;-86
2023/12/17 02:47:09;;;;;;;9.35;3.70;;;9.40;99.90;;;;;;5060100;28;20063;-85
2023/12/17 02:49:35;;;;;;;9.57;3.50;;;9.40;99.90;;;;;;5060469;28;20048;-85
2023/12/17 02:52:01;;;;;;;8.80;3.53;;;9.40;99.90;;;;;;5060942;28;20032;-85
2023/12/17 02:54:29;;;;;;;8.18;3.10;;;9.40;99.90;;;;;;5044438;28;20214;-85
2023/12/17 02:56:54;;;;;;;8.57;3.67;;;9.40;99.90;;;;;;5060017;28;20044;-86
2023/12/17 02:59:20;;;;;;;10.05;3.17;;;9.40;99.90;;;;;;5042931;28;20090;-85
2023/12/17 03:01:46;;;;;;;8.57;3.33;;;9.40;99.90;;;;;;5077015;28;20031;-86
2023/12/17 03:04:12;;;;;;;9.82;3.40;;;9.40;99.90;;;;;;5044243;28;20036;-85
2023/12/17 03:06:38;;;;;;;11.20;3.80;;;9.40;99.90;;;;;;5058769;28;20052;-85
2023/12/17 03:09:05;;;;;;;11.30;3.78;;;9.40;99.90;;;;;;5073767;28;20044;-85
2023/12/17 03:11:31;;;;;;;8.68;3.28;;;9.40;99.90;;;;;;5060175;28;20020;-85
2023/12/17 03:13:57;;;;;;;9.85;3.30;;;9.40;99.90;;;;;;5059799;28;20227;-86
2023/12/17 03:16:26;;;;;;;9.57;3.60;;;9.40;99.90;;;;;;5075813;28;20193;-86
2023/12/17 03:18:52;;;;;;;8.20;3.10;;;9.40;99.90;;;;;;5060141;28;20113;-85
2023/12/17 03:21:18;;;;;;;8.63;3.25;;;9.40;99.90;;;;;;5042239;28;20051;-86
2023/12/17 03:23:44;;;;;;;9.98;3.53;;;9.40;99.90;;;;;;5076468;28;20033;-85
2023/12/17 03:26:10;;;;;;;9.00;3.20;;;9.30;99.90;;;;;;5057814;28;20275;-85
2023/12/17 03:28:36;;;;;;;9.68;3.63;;;9.40;99.90;;;;;;5074907;28;20032;-86
2023/12/17 03:31:02;;;;;;;9.13;3.50;;;9.40;99.90;;;;;;5073900;28;20024;-86
2023/12/17 03:33:28;;;;;;;10.30;3.10;;;9.40;99.90;;;;;;5043456;28;20061;-86
2023/12/17 03:35:54;;;;;;;8.00;3.25;;;9.40;99.90;;;;;;5041686;28;20044;-87
2023/12/17 03:38:20;;;;;;;11.23;3.38;;;9.40;99.90;;;;;;5045437;28;21532;-86
2023/12/17 03:40:45;;;;;;;9.30;3.70;;;9.40;99.90;;;;;;5079170;28;20144;-86
2023/12/17 03:43:11;;;;;;;9.13;3.20;;;9.40;99.90;;;;;;5031339;28;20063;-86
2023/12/17 03:45:37;;;;;;;9.38;3.58;;;9.40;99.90;;;;;;5047407;28;20040;-86
2023/12/17 03:48:05;;;;;;;9.90;3.65;;;9.80;99.90;;;;;;5077273;28;20036;-85
2023/12/17 03:50:31;;;;;;;9.95;3.60;;;9.40;99.90;;;;;;5063285;28;20044;-85
2023/12/17 03:52:56;;;;;;;10.43;3.72;;;9.30;99.90;;;;;;5063889;28;20024;-86
2023/12/17 03:55:22;;;;;;;10.23;3.80;;;9.30;99.90;;;;;;5062932;28;20059;-86
2023/12/17 03:57:48;;;;;;;9.05;3.80;;;9.40;99.90;;;;;;5046801;28;20367;-85
2023/12/17 04:00:15;;;;;;;10.52;4.10;;;9.30;99.90;;;;;;5062847;28;20279;-85
2023/12/17 04:02:41;;;;;;;9.23;3.90;;;9.30;99.90;;;;;;5064140;28;20297;-85
2023/12/17 04:05:10;;;;;;;10.30;4.30;;;9.30;99.90;;;;;;5046901;28;20150;-85
2023/12/17 04:07:35;;;;;;;11.65;4.40;;;9.30;99.90;;;;;;5079309;28;20032;-85
2023/12/17 04:10:02;;;;;;;9.68;4.15;;;9.30;99.90;;;;;;5029880;28;20131;-86
2023/12/17 04:12:28;;;;;;;10.70;4.28;;;9.30;99.90;;;;;;5080356;28;20028;-85
2023/12/17 04:14:54;;;;;;;10.57;4.45;;;9.30;99.90;;;;;;5044848;28;20341;-86
2023/12/17 04:17:20;;;;;;;11.45;4.85;;;9.30;99.90;;;;;;5079702;28;20048;-85
2023/12/17 04:19:46;;;;;;;11.90;4.30;;;9.30;99.90;;;;;;5096958;28;20104;-86
2023/12/17 04:22:12;;;;;;;11.18;4.88;;;9.20;99.90;;;;;;5078853;28;20032;-86
2023/12/17 04:24:38;;;;;;;11.35;4.55;;;9.20;99.90;;;;;;5063039;28;20060;-86
2023/12/17 04:27:04;;;;;;;12.50;4.70;;;9.20;99.90;;;;;;5078539;28;20040;-85
2023/12/17 04:29:30;;;;;;;10.43;5.03;;;9.30;99.90;;;;;;5062345;28;20064;-86
2023/12/17 04:31:55;;;;;;;11.15;4.53;;;9.30;99.90;;;;;;5028905;28;20169;-86
2023/12/17 04:34:21;;;;;;;11.77;4.60;;;9.30;99.90;;;;;;5061215;28;20041;-86
2023/12/17 04:36:47;;;;;;;12.00;5.00;;;9.30;99.90;;;;;;5030727;28;20324;-86
2023/12/17 04:39:13;;;;;;;9.73;4.28;;;9.20;99.90;;;;;;5077704;28;20037;-86
2023/12/17 04:41:39;;;;;;;12.98;5.30;;;9.20;99.90;;;;;;5078785;28;20039;-85
2023/12/17 04:44:05;;;;;;;9.93;4.28;;;9.20;99.90;;;;;;5045512;28;20289;-85
2023/12/17 04:46:31;;;;;;;12.50;5.00;;;9.20;99.90;;;;;;5078424;28;20060;-85
2023/12/17 04:48:57;;;;;;;11.77;5.05;;;9.30;99.90;;;;;;5062315;28;20736;-86
2023/12/17 04:51:23;;;;;;;13.95;5.13;;;9.30;99.90;;;;;;5061103;28;20037;-86
2023/12/17 04:53:49;;;;;;;11.52;4.65;;;9.30;99.90;;;;;;5046202;28;20029;-85
2023/12/17 04:56:16;;;;;;;10.13;4.45;;;9.30;99.90;;;;;;5045960;28;20140;-85
2023/12/17 04:58:41;;;;;;;10.60;4.32;;;9.20;99.90;;;;;;5060276;28;22358;-86
2023/12/17 05:01:07;;;;;;;11.23;4.85;;;9.30;99.90;;;;;;5028669;28;20036;-86
2023/12/17 05:03:33;;;;;;;11.40;4.90;;;9.20;99.90;;;;;;5056833;28;20179;-86
2023/12/17 05:05:59;;;;;;;12.25;5.15;;;9.20;99.90;;;;;;5044923;28;20068;-85
2023/12/17 05:08:24;;;;;;;12.43;5.10;;;9.30;99.90;;;;;;5045814;28;20274;-85
2023/12/17 05:10:50;;;;;;;10.48;4.38;;;9.30;99.90;;;;;;5060987;28;20036;-85
2023/12/17 05:13:16;;;;;;;12.57;4.93;;;9.20;99.90;;;;;;5076907;28;20037;-86
2023/12/17 05:15:42;;;;;;;11.48;4.93;;;9.20;99.90;;;;;;5078867;28;20389;-85
2023/12/17 05:18:08;;;;;;;12.43;4.75;;;9.20;99.90;;;;;;5046540;28;20025;-86
2023/12/17 05:20:33;;;;;;;10.43;4.28;;;9.20;99.90;;;;;;5077522;28;20206;-84
2023/12/17 05:22:59;;;;;;;9.88;4.53;;;9.20;99.90;;;;;;5061779;28;20116;-85
2023/12/17 05:25:25;;;;;;;11.73;4.75;;;9.20;99.90;;;;;;5061440;28;20115;-85
2023/12/17 05:27:51;;;;;;;10.57;4.55;;;9.20;99.90;;;;;;5062266;28;20024;-86
2023/12/17 05:30:17;;;;;;;13.05;4.82;;;9.20;99.90;;;;;;5059598;28;20109;-85
2023/12/17 05:32:42;;;;;;;10.98;4.60;;;9.20;99.90;;;;;;5027376;28;20045;-85
2023/12/17 05:35:08;;;;;;;10.77;5.03;;;9.20;99.90;;;;;;5061847;28;20040;-86
2023/12/17 05:37:34;;;;;;;12.52;5.20;;;9.20;99.90;;;;;;5078457;28;20030;-85
2023/12/17 05:40:01;;;;;;;10.85;4.60;;;9.20;99.90;;;;;;5061749;28;20057;-85
2023/12/17 05:42:26;;;;;;;12.05;5.10;;;9.10;99.90;;;;;;5060139;28;20319;-86
2023/12/17 05:44:52;;;;;;;10.98;4.60;;;9.10;99.90;;;;;;5062331;28;20035;-86
2023/12/17 05:47:18;;;;;;;11.63;5.20;;;9.10;99.90;;;;;;5043919;28;20103;-85
2023/12/17 05:49:44;;;;;;;12.65;5.20;;;9.10;99.90;;;;;;5060649;28;20048;-85
2023/12/17 05:52:10;;;;;;;10.95;4.80;;;9.10;99.90;;;;;;5045279;28;20056;-86
2023/12/17 05:54:38;;;;;;;12.93;5.13;;;9.10;99.90;;;;;;5094214;28;20044;-86
2023/12/17 05:57:04;;;;;;;11.32;5.03;;;9.00;99.90;;;;;;5061889;28;20035;-86
2023/12/17 05:59:30;;;;;;;11.68;5.22;;;9.10;99.90;;;;;;5061643;28;20108;-85
2023/12/17 06:01:56;;;;;;;13.50;5.65;;;9.00;99.90;;;;;;5060147;28;20343;-86
2023/12/17 06:04:21;;;;;;;10.80;5.70;;;9.00;99.90;;;;;;5076582;28;20028;-86
2023/12/17 06:06:47;;;;;;;12.80;5.60;;;9.00;99.90;;;;;;5056154;28;20047;-86
2023/12/17 06:09:13;;;;;;;13.50;5.97;;;9.10;99.90;;;;;;5059336;28;20042;-85
2023/12/17 06:11:39;;;;;;;11.15;5.78;;;9.00;99.90;;;;;;5027463;28;20208;-85
2023/12/17 06:14:04;;;;;;;13.10;6.00;;;9.10;99.90;;;;;;5075877;28;20083;-85
2023/12/17 06:16:30;;;;;;;12.05;5.80;;;9.10;99.90;;;;;;5044787;28;20024;-86
2023/12/17 06:18:56;;;;;;;14.20;6.30;;;9.10;99.90;;;;;;5026662;28;20032;-86
2023/12/17 06:21:26;;;;;;;18.30;6.60;;;9.00;99.90;;;;;;5060079;28;20028;-86
2023/12/17 06:23:57;;;;;;;11.68;5.47;;;9.10;99.90;;;;;;5060988;28;20288;-86
2023/12/17 06:26:24;;;;;;;14.40;6.07;;;9.00;99.90;;;;;;5042814;28;20029;-86
2023/12/17 06:28:49;;;;;;;14.13;5.85;;;9.10;99.90;;;;;;5045593;28;20054;-85
2023/12/17 06:31:15;;;;;;;10.68;5.53;;;9.00;99.90;;;;;;5074276;28;20266;-85
2023/12/17 06:33:41;;;;;;;11.73;5.25;;;9.00;99.90;;;;;;5043346;28;20041;-86
2023/12/17 06:36:07;;;;;;;12.63;5.40;;;9.00;99.90;;;;;;5041277;28;20033;-86
2023/12/17 06:38:33;;;;;;;10.35;4.90;;;9.00;99.90;;;;;;5044832;28;20095;-85
2023/12/17 06:40:59;;;;;;;11.35;5.00;;;9.00;99.90;;;;;;5056243;28;20048;-86
2023/12/17 06:43:24;;;;;;;10.63;3.95;;;9.00;99.90;;;;;;5043719;28;20059;-85
2023/12/17 06:45:50;;;;;;;11.57;4.40;;;9.00;99.90;;;;;;5027310;28;20044;-84
2023/12/17 06:48:16;;;;;;;12.15;5.10;;;9.20;99.90;;;;;;5076800;28;20028;-85
2023/12/17 06:50:42;;;;;;;9.95;4.38;;;9.00;99.90;;;;;;5056707;28;20068;-85
2023/12/17 06:53:07;;;;;;;10.35;4.43;;;9.00;99.90;;;;;;5075940;28;20041;-85
2023/12/17 06:55:33;;;;;;;11.20;4.47;;;9.00;99.90;;;;;;5059965;28;20040;-85
2023/12/17 06:57:59;;;;;;;10.25;4.22;;;9.00;99.90;;;;;;5042626;28;20044;-86
2023/12/17 07:00:25;;;;;;;8.65;4.00;;;9.00;99.90;;;;;;5042878;28;20104;-85
2023/12/17 07:02:51;;;;;;;9.55;3.60;;;9.00;99.90;;;;;;5027264;28;20171;-85
2023/12/17 07:05:17;;;;;;;8.98;3.88;;;9.00;99.90;;;;;;5056629;28;20096;-85
2023/12/17 07:07:43;;;;;;;9.52;4.05;;;9.00;99.90;;;;;;5060176;28;20294;-85
2023/12/17 07:10:11;;;;;;;11.48;4.20;;;9.00;99.90;;;;;;5040705;28;20239;-85
2023/12/17 07:12:37;;;;;;;10.23;3.88;;;9.00;99.90;;;;;;5043373;28;20258;-85
2023/12/17 07:15:04;;;;;;;11.40;3.88;;;9.00;99.90;;;;;;5042671;28;20107;-85
2023/12/17 07:17:30;;;;;;;11.02;4.10;;;9.00;99.90;;;;;;5074591;28;20028;-85
2023/12/17 07:19:55;;;;;;;10.93;4.32;;;9.00;99.90;;;;;;5042705;28;20235;-85
2023/12/17 07:22:22;;;;;;;10.77;3.90;;;9.00;99.90;;;;;;5059290;28;20107;-85
2023/12/17 07:24:49;;;;;;;10.82;3.60;;;9.00;99.90;;;;;;5075015;28;20032;-85
2023/12/17 07:27:15;;;;;;;13.02;3.95;;;9.00;99.90;;;;;;5074812;28;20132;-85
2023/12/17 07:29:41;;;;;;;11.20;3.67;;;9.00;99.90;;;;;;5042377;28;20036;-85
2023/12/17 07:32:07;;;;;;;11.38;3.90;;;9.00;99.90;;;;;;5075342;28;20150;-85
2023/12/17 07:34:32;;;;;;;10.07;4.10;;;9.00;99.90;;;;;;5074122;28;20083;-85
2023/12/17 07:37:00;;;;;;;10.73;3.75;;;9.00;99.90;;;;;;5058530;28;20097;-86
2023/12/17 07:39:26;;;;;;;10.45;4.30;;;9.00;99.90;;;;;;5042480;28;20020;-86
2023/12/17 07:41:51;;;;;;;11.10;3.90;;;9.00;99.90;;;;;;5057502;28;20185;-86
2023/12/17 07:44:17;;;;;;;10.50;4.07;;;9.00;99.90;;;;;;5043010;28;20182;-86
2023/12/17 07:46:43;;;;;;;10.77;4.15;;;9.00;99.90;;;;;;5072817;28;20060;-86
2023/12/17 07:49:09;;;;;;;12.77;4.20;;;9.00;99.90;;;;;;5042005;28;20037;-86
2023/12/17 07:51:35;;;;;;;11.32;3.92;;;9.00;99.90;;;;;;5075511;28;20024;-85
2023/12/17 07:54:01;;;;;;;10.27;4.38;;;9.00;99.90;;;;;;5044100;28;20285;-85
2023/12/17 07:56:27;;;;;;;11.48;4.05;;;8.90;99.90;;;;;;5074339;28;20031;-85
2023/12/17 07:58:54;;;;;;;11.05;4.47;;;9.00;99.90;;;;;;5059020;28;20037;-84
2023/12/17 08:01:29;;;;;;;11.35;4.10;;;8.90;99.90;;;;;;5058061;28;20372;-85
2023/12/17 08:03:55;;;;;;;12.63;4.60;;;9.00;99.90;;;;;;5035496;28;20039;-85
2023/12/17 08:06:21;;;;;;;9.40;3.63;;;9.00;99.90;;;;;;5057545;28;20115;-85
2023/12/17 08:08:47;;;;;;;13.55;4.28;;;9.00;99.90;;;;;;5025638;28;20027;-85
2023/12/17 08:11:13;;;;;;;10.57;4.30;;;8.90;99.90;;;;;;5107910;28;20032;-85
2023/12/17 08:13:39;;;;;;;13.07;4.78;;;9.00;99.90;;;;;;5074818;28;20051;-85
2023/12/17 08:16:05;;;;;;;12.45;4.43;;;9.00;99.90;;;;;;5072418;28;20053;-84
2023/12/17 08:18:31;;;;;;;14.80;4.78;;;9.00;99.90;;;;;;5059262;28;20032;-85
2023/12/17 08:20:57;;;;;;;12.90;4.88;;;9.00;99.90;;;;;;5041936;28;20100;-86
2023/12/17 08:23:25;;;;;;;10.52;4.90;;;9.00;99.90;;;;;;5074386;28;20029;-85
2023/12/17 08:25:51;;;;;;;11.32;4.70;;;9.00;99.90;;;;;;5075256;28;20056;-85
2023/12/17 08:28:19;;;;;;;12.65;5.35;;;9.00;99.90;;;;;;5046228;28;20040;-84
2023/12/17 08:30:45;;;;;;;12.80;4.70;;;9.00;99.90;;;;;;5060157;28;20032;-85
2023/12/17 08:33:10;;;;;;;12.50;5.55;;;9.00;99.90;;;;;;5060738;28;20076;-83
2023/12/17 08:35:39;;;;;;;11.75;5.97;;;9.00;99.90;;;;;;5075864;28;20036;-86
2023/12/17 08:38:06;;;;;;;11.10;4.85;;;9.00;99.90;;;;;;5062817;28;20208;-85
2023/12/17 08:40:37;;;;;;;10.98;5.22;;;9.10;99.90;;;;;;5044738;28;20271;-85
2023/12/17 08:43:04;;;;;;;10.75;4.82;;;9.00;99.90;;;;;;5061525;28;20490;-86
2023/12/17 08:45:30;;;;;;;12.65;5.22;;;9.00;99.90;;;;;;5090892;28;20047;-87
2023/12/17 08:47:56;;;;;;;13.00;4.90;;;9.00;99.90;;;;;;5061497;28;20079;-85
2023/12/17 08:50:22;;;;;;;10.75;4.95;;;9.00;99.90;;;;;;5076772;28;20103;-85
2023/12/17 08:52:48;;;;;;;13.55;5.18;;;9.00;99.90;;;;;;5076015;28;20227;-85
2023/12/17 08:55:14;;;;;;;11.32;5.03;;;9.00;99.90;;;;;;5112138;28;20162;-85
2023/12/17 08:57:40;;;;;;;11.55;4.90;;;9.00;99.90;;;;;;5060206;28;20044;-85
2023/12/17 09:00:07;;;;;;;13.30;5.30;;;9.00;99.90;;;;;;5062108;28;20024;-85
2023/12/17 09:02:35;;;;;;;13.25;5.70;;;9.10;99.90;;;;;;5043017;28;20086;-85
2023/12/17 09:05:02;;;;;;;11.30;5.65;;;9.00;99.90;;;;;;5059733;28;20249;-84
2023/12/17 09:07:28;;;;;;;12.13;6.68;;;9.10;99.90;;;;;;5043569;28;20017;-84
2023/12/17 09:09:54;;;;;;;11.98;5.43;;;9.10;99.90;;;;;;5061663;28;20135;-85
2023/12/17 09:12:19;;;;;;;12.05;5.90;;;9.10;99.90;;;;;;5076674;28;20609;-85
2023/12/17 09:14:45;;;;;;;13.13;5.50;;;9.10;99.90;;;;;;5044273;28;20036;-85
2023/12/17 09:17:11;;;;;;;13.23;6.72;;;9.10;99.90;;;;;;5061313;28;20115;-85
2023/12/17 09:19:36;;;;;;;12.93;6.78;;;9.20;99.90;;;;;;5045084;28;20020;-85
2023/12/17 09:22:02;;;;;;;13.18;6.07;;;9.20;99.90;;;;;;5044156;28;20276;-84
2023/12/17 09:24:29;;;;;;;15.18;7.22;;;9.10;99.90;;;;;;5028844;28;20081;-85
2023/12/17 09:26:55;;;;;;;14.82;7.72;;;9.20;99.90;;;;;;5044075;28;20032;-85
2023/12/17 09:29:20;;;;;;;15.10;7.57;;;9.10;99.90;;;;;;5043624;28;20041;-85
2023/12/17 09:31:47;;;;;;;15.40;7.60;;;9.20;99.90;;;;;;5044854;28;20088;-86
2023/12/17 09:34:15;;;;;;;17.35;7.72;;;9.20;99.90;;;;;;5059855;28;20059;-85
2023/12/17 09:36:41;;;;;;;13.82;8.07;;;9.20;99.90;;;;;;5076025;28;20032;-86
2023/12/17 09:39:10;;;;;;;16.13;7.50;;;9.20;99.90;;;;;;5077765;28;20099;-85
2023/12/17 09:41:36;;;;;;;16.25;8.02;;;9.20;99.90;;;;;;5074561;28;20043;-85
2023/12/17 09:44:04;;;;;;;16.83;8.20;;;9.20;99.90;;;;;;5044286;28;20043;-86
2023/12/17 09:46:30;;;;;;;15.23;8.23;;;9.20;99.90;;;;;;5075477;28;20040;-85
2023/12/17 09:48:56;;;;;;;15.98;7.30;;;9.30;99.90;;;;;;5074761;28;20203;-84
2023/12/17 09:51:24;;;;;;;18.02;8.13;;;9.30;99.90;;;;;;5076851;28;20052;-85
2023/12/17 09:53:50;;;;;;;14.48;7.57;;;9.30;99.90;;;;;;5059174;28;20159;-85
2023/12/17 09:56:16;;;;;;;17.17;7.75;;;9.30;99.90;;;;;;5060377;28;20359;-85
2023/12/17 09:58:43;;;;;;;15.75;7.40;;;9.30;99.90;;;;;;5059815;28;20044;-86
2023/12/17 10:01:08;;;;;;;16.05;8.35;;;9.30;99.90;;;;;;5077020;28;20040;-85
2023/12/17 10:03:35;;;;;;;17.05;7.10;;;9.30;99.90;;;;;;5061826;28;20048;-84
2023/12/17 10:06:02;;;;;;;14.98;7.18;;;9.40;99.90;;;;;;5060793;28;20321;-85
2023/12/17 10:08:28;;;;;;;15.82;7.10;;;9.40;99.90;;;;;;5076113;28;20037;-85
2023/12/17 10:10:54;;;;;;;12.55;6.43;;;9.40;99.90;;;;;;5056988;28;20077;-85
2023/12/17 10:13:21;;;;;;;12.88;6.95;;;9.40;99.90;;;;;;5061808;28;20028;-85
2023/12/17 10:15:54;;;;;;;14.23;7.13;;;9.40;99.90;;;;;;5078305;28;20033;-85
2023/12/17 10:18:21;;;;;;;;;;;9.40;99.90;;;;;;5079275;28;20036;-85
2023/12/17 10:20:47;;;;;;;13.38;6.70;;;9.40;99.90;;;;;;5073666;28;19908;-84
2023/12/17 10:23:14;;;;;;;12.13;6.50;;;9.40;99.90;;;;;;5058040;28;20772;-84
2023/12/17 10:25:40;;;;;;;14.95;6.90;;;9.40;99.90;;;;;;5059641;28;20045;-84
2023/12/17 10:28:09;;;;;;;12.95;6.55;;;9.40;99.90;;;;;;5074678;28;20033;-85
2023/12/17 10:30:35;;;;;;;12.77;6.72;;;9.40;99.90;;;;;;5109722;28;20084;-85
2023/12/17 10:33:02;;;;;;;15.20;6.65;;;9.40;99.90;;;;;;5058760;28;20226;-86
2023/12/17 10:35:30;;;;;;;15.10;7.18;;;9.40;99.90;;;;;;5055475;28;20285;-85
2023/12/17 10:38:03;;;;;;;14.43;7.22;;;9.40;99.90;;;;;;5056009;28;20020;-85
2023/12/17 10:40:29;;;;;;;13.02;6.75;;;9.40;99.90;;;;;;5075394;28;20059;-85
2023/12/17 10:42:56;;;;;;;17.08;7.65;;;9.40;99.90;;;;;;5061000;28;20028;-86
2023/12/17 10:45:23;;;;;;;15.18;8.40;;;9.40;99.90;;;;;;5076811;28;20182;-85
2023/12/17 10:47:56;;;;;;;17.40;9.23;;;9.40;99.90;;;;;;5071979;28;20025;-86
2023/12/17 10:50:22;;;;;;;18.27;9.45;;;9.40;99.90;;;;;;5076782;28;20028;-85
2023/12/17 10:52:49;;;;;;;18.05;9.18;;;9.40;99.90;;;;;;5061650;28;20034;-85
2023/12/17 10:55:16;;;;;;;17.67;10.35;;;9.40;99.90;;;;;;5044087;28;20056;-85
2023/12/17 10:57:49;;;;;;;19.33;10.93;;;9.40;99.90;;;;;;5073937;28;20053;-85
2023/12/17 11:00:18;;;;;;;18.02;10.85;;;9.40;99.90;;;;;;5059537;28;20092;-84
2023/12/17 11:02:48;;;;;;;22.92;11.65;;;9.40;99.90;;;;;;5061063;28;20082;-84
2023/12/17 11:05:14;;;;;;;18.88;11.43;;;9.40;99.90;;;;;;5077747;28;20317;-85
2023/12/17 11:07:40;;;;;;;19.95;11.90;;;9.50;99.90;;;;;;5060916;28;20247;-85
2023/12/17 11:10:09;;;;;;;20.33;12.18;;;9.50;99.90;;;;;;5075771;28;20035;-85
2023/12/17 11:12:35;;;;;;;20.17;11.52;;;9.50;99.90;;;;;;5060574;28;20028;-85
2023/12/17 11:15:01;;;;;;;19.40;12.57;;;9.60;99.90;;;;;;5060335;28;20337;-85
2023/12/17 11:17:27;;;;;;;21.67;12.25;;;9.50;99.90;;;;;;5060807;28;20324;-85
2023/12/17 11:19:59;;;;;;;20.77;11.77;;;9.60;99.90;;;;;;5059060;28;20037;-85
2023/12/17 11:22:25;;;;;;;18.40;11.47;;;9.60;99.90;;;;;;5077687;28;20032;-85
2023/12/17 11:24:55;;;;;;;18.60;11.48;;;9.50;99.90;;;;;;5058444;28;20071;-85
2023/12/17 11:27:22;;;;;;;20.77;12.95;;;9.60;99.90;;;;;;5074851;28;20074;-85
2023/12/17 11:29:49;;;;;;;20.45;12.48;;;9.50;99.90;;;;;;5073259;28;20032;-85
2023/12/17 11:32:20;;;;;;;21.55;12.98;;;9.60;99.90;;;;;;5075147;28;20045;-85
2023/12/17 11:34:50;;;;;;;21.45;12.27;;;9.60;99.90;;;;;;5073800;28;20345;-84
2023/12/17 11:37:18;;;;;;;21.73;12.07;;;9.60;99.90;;;;;;5071361;28;20544;-86
2023/12/17 11:39:49;;;;;;;17.95;11.38;;;9.60;99.90;;;;;;5070196;28;20040;-84
2023/12/17 11:42:16;;;;;;;17.33;11.02;;;9.60;99.90;;;;;;5088809;28;20039;-84
2023/12/17 11:44:51;;;;;;;16.80;10.80;;;9.70;99.90;;;;;;5070320;28;21375;-84
2023/12/17 11:47:26;;;;;;;17.90;10.90;;;9.70;99.90;;;;;;5057206;28;20039;-85
2023/12/17 11:50:00;;;;;;;15.50;9.20;;;9.80;99.90;;;;;;5060130;28;20037;-85
2023/12/17 11:52:27;;;;;;;16.13;10.05;;;9.80;99.90;;;;;;5075709;28;20090;-84
2023/12/17 11:54:59;;;;;;;16.27;9.55;;;9.90;99.90;;;;;;5071227;28;20044;-85
2023/12/17 11:57:26;;;;;;;16.63;10.07;;;9.90;99.90;;;;;;5073081;28;20097;-85
2023/12/17 11:59:53;;;;;;;17.20;9.50;;;9.90;99.90;;;;;;5060557;28;20028;-85
2023/12/17 12:02:20;;;;;;;16.35;10.43;;;9.90;99.90;;;;;;5078719;28;20082;-85
2023/12/17 12:04:47;;;;;;;14.77;8.85;;;10.00;99.90;;;;;;5057025;28;20036;-85
2023/12/17 12:07:17;;;;;;;16.60;9.65;;;10.00;99.90;;;;;;5060688;28;20095;-84
2023/12/17 12:09:47;;;;;;;15.13;9.05;;;10.10;99.90;;;;;;5045233;28;20024;-86
2023/12/17 12:12:18;;;;;;;15.52;8.88;;;10.10;99.90;;;;;;5045371;28;20028;-85
2023/12/17 12:14:46;;;;;;;14.68;8.52;;;10.10;99.90;;;;;;5065480;28;20110;-85
2023/12/17 12:17:41;;;;;;;18.35;9.52;;;10.00;99.90;;;;;;5061692;28;20025;-86
2023/12/17 12:20:13;;;;;;;17.60;8.82;;;10.00;99.90;;;;;;5058015;28;20045;-84
2023/12/17 12:22:42;;;;;;;13.15;7.85;;;10.00;99.90;;;;;;5058445;28;20049;-86
2023/12/17 12:25:08;;;;;;;14.35;7.95;;;10.00;99.90;;;;;;5060726;28;20099;-85
2023/12/17 12:27:34;;;;;;;17.60;9.18;;;10.00;99.90;;;;;;5077412;28;20036;-85
2023/12/17 12:30:00;;;;;;;13.45;8.23;;;9.90;99.90;;;;;;5060819;28;20048;-85
2023/12/17 12:32:33;;;;;;;14.35;8.15;;;9.90;99.90;;;;;;5044631;28;20111;-85
2023/12/17 12:35:00;;;;;;;14.50;8.18;;;10.00;99.90;;;;;;5042306;28;20227;-84
2023/12/17 12:37:37;;;;;;;14.13;7.95;;;10.00;99.90;;;;;;5059472;28;20029;-85
2023/12/17 12:40:05;;;;;;;14.75;8.25;;;10.00;99.90;;;;;;5061167;28;20056;-84
2023/12/17 12:42:31;;;;;;;13.95;7.85;;;10.00;99.90;;;;;;5074541;28;20090;-85
2023/12/17 12:44:57;;;;;;;13.38;7.68;;;10.00;99.90;;;;;;5061113;28;20174;-85